createdAt,value
2022-11-06T00:01:09.671Z,100.00
2022-11-06T00:06:14.041Z,100.00
2022-11-06T00:11:17.109Z,100.00
2022-11-06T00:16:19.502Z,100.00
2022-11-06T00:21:25.200Z,100.00
2022-11-06T00:26:28.770Z,100.00
2022-11-06T00:31:32.752Z,100.00
2022-11-06T00:36:34.430Z,100.00
2022-11-06T00:41:35.881Z,100.00
2022-11-06T00:46:37.576Z,100.00
2022-11-06T00:51:39.227Z,100.00
2022-11-06T00:56:41.228Z,100.00
2022-11-06T01:01:44.818Z,100.00
2022-11-06T01:06:49.941Z,100.00
2022-11-06T01:17:16.300Z,100.00
2022-11-06T01:22:18.041Z,100.00
2022-11-06T01:27:26.537Z,100.00
2022-11-06T01:32:28.782Z,100.00
2022-11-06T01:37:30.295Z,100.00
2022-11-06T01:42:31.785Z,100.00
2022-11-06T01:47:33.265Z,100.00
2022-11-06T01:52:35.943Z,100.00
2022-11-06T01:57:37.784Z,100.00
2022-11-06T02:02:40.525Z,100.00
2022-11-06T02:07:43.670Z,100.00
2022-11-06T02:13:00.980Z,100.00
2022-11-06T02:18:14.720Z,100.00
2022-11-06T02:23:34.832Z,100.00
2022-11-06T02:28:43.457Z,100.00
2022-11-06T02:33:51.920Z,100.00
2022-11-06T02:39:00.884Z,100.00
2022-11-06T02:44:07.736Z,100.00
2022-11-06T02:49:18.640Z,100.00
2022-11-06T02:54:22.605Z,100.00
2022-11-06T02:59:32.108Z,100.00
2022-11-06T03:04:48.890Z,100.00
2022-11-06T03:09:50.641Z,100.00
2022-11-06T03:15:43.304Z,100.00
2022-11-06T03:20:58.890Z,100.00
2022-11-06T03:26:12.300Z,100.00
2022-11-06T03:31:18.420Z,100.00
2022-11-06T03:36:29.170Z,100.00
2022-11-06T03:41:37.029Z,100.00
2022-11-06T03:46:44.075Z,100.00
2022-11-06T03:51:59.519Z,100.00
2022-11-06T03:57:17.744Z,100.00
2022-11-06T04:02:22.784Z,100.00
2022-11-06T04:07:34.321Z,100.00
2022-11-06T04:12:39.156Z,100.00
2022-11-06T04:17:41.496Z,100.00
2022-11-06T04:22:42.840Z,100.00
2022-11-06T04:28:09.197Z,100.00
2022-11-06T04:33:25.301Z,100.00
2022-11-06T04:38:42.842Z,100.00
2022-11-06T04:43:49.784Z,100.00
2022-11-06T04:48:52.478Z,100.00
2022-11-06T04:53:55.352Z,100.00
2022-11-06T04:58:57.193Z,100.00
2022-11-06T05:03:59.273Z,100.00
2022-11-06T05:09:00.744Z,100.00
2022-11-06T05:14:02.164Z,100.00
2022-11-06T05:19:04.078Z,100.00
2022-11-06T05:24:06.229Z,100.00
2022-11-06T05:29:07.801Z,100.00
2022-11-06T05:34:09.326Z,100.00
2022-11-06T05:39:10.821Z,100.00
2022-11-06T05:44:12.274Z,100.00
2022-11-06T05:49:13.810Z,100.00
2022-11-06T05:54:15.518Z,100.00
2022-11-06T05:59:16.996Z,100.00
2022-11-06T06:04:18.485Z,100.00
2022-11-06T06:09:19.925Z,100.00
2022-11-06T06:14:21.723Z,100.00
2022-11-06T06:19:23.159Z,100.00
2022-11-06T06:24:24.683Z,100.00
2022-11-06T06:29:26.259Z,100.00
2022-11-06T06:34:27.742Z,100.00
2022-11-06T06:39:29.177Z,100.00
2022-11-06T06:44:31.556Z,100.00
2022-11-06T06:49:32.940Z,100.00
2022-11-06T06:54:34.554Z,100.00
2022-11-06T06:59:36.194Z,100.00
2022-11-06T07:04:37.773Z,100.00
2022-11-06T07:09:39.235Z,100.00
2022-11-06T07:14:40.670Z,100.00
2022-11-06T07:19:42.091Z,100.00
2022-11-06T07:24:43.589Z,100.00
2022-11-06T07:29:45.105Z,100.00
2022-11-06T07:34:46.547Z,100.00
2022-11-06T07:39:47.982Z,100.00
2022-11-06T07:44:49.379Z,100.00
2022-11-06T07:49:51.353Z,100.00
2022-11-06T07:54:52.920Z,100.00
2022-11-06T07:59:54.538Z,100.00
2022-11-06T08:04:56.106Z,100.00
2022-11-06T08:09:57.928Z,100.00
2022-11-06T08:14:59.329Z,100.00
2022-11-06T08:20:00.717Z,100.00
2022-11-06T08:25:02.157Z,100.00
2022-11-06T08:30:04.553Z,100.00
2022-11-06T08:35:06.640Z,100.00
2022-11-06T08:40:08.768Z,100.00
2022-11-06T08:45:10.560Z,100.00
2022-11-06T08:50:12.016Z,100.00
2022-11-06T08:55:13.499Z,100.00
2022-11-06T09:00:15.875Z,100.00
2022-11-06T09:05:17.463Z,100.00
2022-11-06T09:10:19.298Z,100.00
2022-11-06T09:15:20.763Z,100.00
2022-11-06T09:20:23.743Z,100.00
2022-11-06T09:25:25.154Z,100.00
2022-11-06T09:30:29.499Z,100.00
2022-11-06T09:35:33.769Z,97.77
2022-11-06T09:40:48.711Z,100.00
2022-11-06T09:45:54.852Z,100.00
2022-11-06T09:51:12.351Z,97.64
2022-11-06T09:56:17.557Z,100.00
2022-11-06T10:01:27.330Z,96.62
2022-11-06T10:06:29.969Z,96.36
2022-11-06T10:11:46.699Z,94.54
2022-11-06T10:17:09.228Z,94.98
2022-11-06T10:22:21.554Z,93.76
2022-11-06T10:27:34.116Z,94.24
2022-11-06T10:32:53.226Z,95.24
2022-11-06T10:38:10.308Z,93.40
2022-11-06T10:43:31.505Z,94.28
2022-11-06T10:48:43.561Z,95.94
2022-11-06T10:54:21.888Z,92.52
2022-11-06T10:59:23.510Z,95.23
2022-11-06T11:04:25.218Z,92.86
2022-11-06T11:09:26.607Z,94.50
2022-11-06T11:14:31.853Z,94.18
2022-11-06T11:19:41.266Z,94.26
2022-11-06T11:25:24.209Z,96.06
2022-11-06T11:30:26.768Z,93.51
2022-11-06T11:35:30.991Z,93.92
2022-11-06T11:40:35.269Z,95.42
2022-11-06T11:45:36.869Z,94.70
2022-11-06T11:50:40.139Z,92.78
2022-11-06T11:55:46.186Z,93.24
2022-11-06T12:00:58.181Z,93.75
2022-11-06T12:06:10.145Z,92.87
2022-11-06T12:11:25.196Z,92.77
2022-11-06T12:16:26.681Z,92.08
2022-11-06T12:21:32.939Z,93.14
2022-11-06T12:26:39.778Z,95.72
2022-11-06T12:31:53.236Z,92.51
2022-11-06T12:37:32.089Z,93.24
2022-11-06T12:42:35.761Z,93.17
2022-11-06T12:47:51.713Z,91.11
2022-11-06T12:53:08.113Z,92.76
2022-11-06T12:58:25.719Z,93.77
2022-11-06T13:03:49.214Z,93.85
2022-11-06T13:09:21.980Z,95.51
2022-11-06T13:14:46.680Z,92.92
2022-11-06T13:20:11.147Z,95.23
2022-11-06T13:25:19.164Z,96.25
2022-11-06T13:30:23.241Z,96.46
2022-11-06T13:35:25.556Z,98.14
2022-11-06T13:40:39.800Z,98.00
2022-11-06T13:45:51.104Z,98.18
2022-11-06T13:50:57.781Z,97.51
2022-11-06T13:56:12.002Z,97.14
2022-11-06T14:01:40.669Z,98.94
2022-11-06T14:06:43.578Z,98.81
2022-11-06T14:11:50.755Z,99.34
2022-11-06T14:17:18.044Z,99.39
2022-11-06T14:22:34.339Z,99.80
2022-11-06T14:27:35.736Z,97.93
2022-11-06T14:32:39.102Z,97.46
2022-11-06T14:37:43.218Z,98.25
2022-11-06T14:42:47.190Z,98.42
2022-11-06T14:47:55.001Z,100.00
2022-11-06T14:53:06.944Z,100.00
2022-11-06T14:58:30.248Z,100.00
2022-11-06T15:03:34.396Z,100.00
2022-11-06T15:08:59.368Z,100.00
2022-11-06T15:14:06.107Z,100.00
2022-11-06T15:19:23.409Z,100.00
2022-11-06T15:24:43.001Z,99.18
2022-11-06T15:29:48.811Z,99.83
2022-11-06T15:34:55.635Z,99.28
2022-11-06T15:40:01.344Z,96.87
2022-11-06T15:45:21.252Z,98.84
2022-11-06T15:50:26.078Z,98.02
2022-11-06T15:55:35.535Z,95.26
2022-11-06T16:00:40.966Z,98.24
2022-11-06T16:05:43.097Z,99.24
2022-11-06T16:10:46.173Z,100.00
2022-11-06T16:16:00.551Z,98.39
2022-11-06T16:21:09.502Z,99.81
2022-11-06T16:26:33.446Z,100.00
2022-11-06T16:31:35.065Z,100.00
2022-11-06T16:36:58.858Z,100.00
2022-11-06T16:42:18.335Z,100.00
2022-11-06T16:47:21.572Z,100.00
2022-11-06T16:52:30.715Z,100.00
2022-11-06T16:57:53.713Z,100.00
2022-11-06T17:03:00.020Z,100.00
2022-11-06T17:08:27.555Z,100.00
2022-11-06T17:13:32.458Z,100.00
2022-11-06T17:18:37.063Z,100.00
2022-11-06T17:23:39.061Z,100.00
2022-11-06T17:28:40.644Z,100.00
2022-11-06T17:33:42.871Z,100.00
2022-11-06T17:38:45.167Z,100.00
2022-11-06T17:43:46.679Z,100.00
2022-11-06T17:48:48.119Z,100.00
2022-11-06T17:53:49.506Z,100.00
2022-11-06T17:58:50.927Z,100.00
2022-11-06T18:03:52.516Z,100.00
2022-11-06T18:08:57.630Z,100.00
2022-11-06T18:13:59.050Z,100.00
2022-11-06T18:19:01.147Z,100.00
2022-11-06T18:24:03.421Z,100.00
2022-11-06T18:29:05.980Z,100.00
2022-11-06T18:34:12.946Z,100.00
2022-11-06T18:39:18.836Z,100.00
2022-11-06T18:44:20.385Z,100.00
2022-11-06T18:49:21.854Z,100.00
2022-11-06T18:54:23.322Z,100.00
2022-11-06T18:59:24.753Z,100.00
2022-11-06T19:04:26.229Z,100.00
2022-11-06T19:09:27.687Z,100.00
2022-11-06T19:14:29.149Z,100.00
2022-11-06T19:19:30.583Z,100.00
2022-11-06T19:24:33.410Z,100.00
2022-11-06T19:29:35.942Z,100.00
2022-11-06T19:34:39.367Z,100.00
2022-11-06T19:39:40.979Z,100.00
2022-11-06T19:44:42.445Z,100.00
2022-11-06T19:49:43.892Z,100.00
2022-11-06T19:54:45.397Z,100.00
2022-11-06T19:59:46.960Z,100.00
2022-11-06T20:04:48.425Z,100.00
2022-11-06T20:09:49.883Z,100.00
2022-11-06T20:14:51.460Z,100.00
2022-11-06T20:19:52.887Z,100.00
2022-11-06T20:24:54.477Z,100.00
2022-11-06T20:29:55.933Z,100.00
2022-11-06T20:34:57.402Z,100.00
2022-11-06T20:39:58.845Z,100.00
2022-11-06T20:45:00.311Z,100.00
2022-11-06T20:50:01.754Z,100.00
2022-11-06T20:55:04.251Z,100.00
2022-11-06T21:00:06.078Z,100.00
2022-11-06T21:05:08.266Z,100.00
2022-11-06T21:10:09.866Z,100.00
2022-11-06T21:15:11.428Z,100.00
2022-11-06T21:20:12.921Z,100.00
2022-11-06T21:25:14.379Z,100.00
2022-11-06T21:30:15.889Z,100.00
2022-11-06T21:35:17.389Z,100.00
2022-11-06T21:40:18.894Z,100.00
2022-11-06T21:45:20.382Z,100.00
2022-11-06T21:50:29.595Z,100.00
2022-11-06T21:55:32.105Z,100.00
2022-11-06T22:00:38.422Z,100.00
2022-11-06T22:05:40.067Z,100.00
2022-11-06T22:10:41.547Z,100.00
2022-11-06T22:15:42.977Z,100.00
2022-11-06T22:20:44.404Z,100.00
2022-11-06T22:25:45.888Z,100.00
2022-11-06T22:30:47.349Z,100.00
2022-11-06T22:35:48.879Z,100.00
2022-11-06T22:40:55.155Z,100.00
2022-11-06T22:46:01.324Z,100.00
2022-11-06T22:51:05.185Z,100.00
2022-11-06T22:56:06.986Z,100.00
2022-11-06T23:01:10.395Z,100.00
2022-11-06T23:06:11.947Z,100.00
2022-11-06T23:11:15.545Z,100.00
2022-11-06T23:16:19.373Z,100.00
2022-11-06T23:21:21.001Z,100.00
2022-11-06T23:26:22.552Z,100.00
2022-11-06T23:31:24.767Z,100.00
2022-11-06T23:36:26.432Z,100.00
2022-11-06T23:41:27.884Z,100.00
2022-11-06T23:46:32.037Z,100.00
2022-11-06T23:51:33.488Z,100.00
2022-11-06T23:56:34.939Z,100.00
